KFBL

Faribault Municipal-Liz Wall Strohfus Field Airport

Faribault, Minnesota, USA
METAR KFBL 220535Z AUTO 15003KT 10SM SCT036 BKN047 OVC065 17/14 A2993 RMK AO2
Observed Flight Rules
Jun-22 @ 05:35 UTC (7 minutes ago) Visual Flight Rules
Wind Visibility Clouds
150° at 3 knots 10 miles
  • Scattered at 3,600' AGL
  • Broken at 4,700' AGL
  • Overcast at 6,500' AGL
Temperatures Readings
Current 17°C / 63°F
Dewpoint 14°C / 57°F
Humidity 83%
Altimeter 29.93" Hg
Pressure 1014 hPa
Elevation 322
METAR KFBL 220535Z AUTO 15003KT 10SM SCT036 BKN047 OVC065 17/14 A2993 RMK AO2
Observed Flight Rules
Jun-22 @ 05:35 UTC
(7 minutes ago)
VFR
Wind Visibility
150° at 3 knots 10 miles
Clouds
  • Scattered at 3,600' AGL
  • Broken at 4,700' AGL
  • Overcast at 6,500' AGL
Temperature Dewpoint
17°C / 63°F 14°C / 57°F
Humidity Altimeter Pressure
83% 29.93" Hg 1014 hPa